sensor_id;sensor_type;location;lat;lon;timestamp;P1;durP1;ratioP1;P2;durP2;ratioP2
20986;SDS011;10652;50.306;8.570;2022-07-29T00:03:03;2.47;;;0.90;;
20986;SDS011;10652;50.306;8.570;2022-07-29T00:07:05;3.47;;;1.13;;
20986;SDS011;10652;50.306;8.570;2022-07-29T00:11:07;4.50;;;1.20;;
20986;SDS011;10652;50.306;8.570;2022-07-29T00:15:10;3.80;;;1.00;;
20986;SDS011;10652;50.306;8.570;2022-07-29T00:19:12;2.78;;;1.00;;
20986;SDS011;10652;50.306;8.570;2022-07-29T00:23:14;4.32;;;1.00;;
20986;SDS011;10652;50.306;8.570;2022-07-29T00:27:17;4.45;;;1.60;;
20986;SDS011;10652;50.306;8.570;2022-07-29T00:31:19;3.88;;;1.30;;
20986;SDS011;10652;50.306;8.570;2022-07-29T00:35:21;4.22;;;1.20;;
20986;SDS011;10652;50.306;8.570;2022-07-29T00:39:42;3.42;;;1.40;;
20986;SDS011;10652;50.306;8.570;2022-07-29T00:43:44;2.88;;;1.83;;
20986;SDS011;10652;50.306;8.570;2022-07-29T00:47:47;2.75;;;1.52;;
20986;SDS011;10652;50.306;8.570;2022-07-29T00:51:49;2.47;;;1.40;;
20986;SDS011;10652;50.306;8.570;2022-07-29T00:55:53;5.45;;;2.13;;
20986;SDS011;10652;50.306;8.570;2022-07-29T00:59:56;4.40;;;1.60;;
20986;SDS011;10652;50.306;8.570;2022-07-29T01:03:58;5.28;;;2.10;;
20986;SDS011;10652;50.306;8.570;2022-07-29T01:08:00;2.58;;;1.48;;
20986;SDS011;10652;50.306;8.570;2022-07-29T01:12:04;4.53;;;1.73;;
20986;SDS011;10652;50.306;8.570;2022-07-29T01:16:18;3.60;;;1.88;;
20986;SDS011;10652;50.306;8.570;2022-07-29T01:20:30;3.75;;;1.83;;
20986;SDS011;10652;50.306;8.570;2022-07-29T01:33:41;3.38;;;1.70;;
20986;SDS011;10652;50.306;8.570;2022-07-29T01:37:52;1.98;;;1.60;;
20986;SDS011;10652;50.306;8.570;2022-07-29T01:42:01;2.60;;;1.42;;
20986;SDS011;10652;50.306;8.570;2022-07-29T01:46:13;2.75;;;1.52;;
20986;SDS011;10652;50.306;8.570;2022-07-29T01:50:19;3.80;;;1.48;;
20986;SDS011;10652;50.306;8.570;2022-07-29T01:54:33;2.97;;;1.63;;
20986;SDS011;10652;50.306;8.570;2022-07-29T01:58:40;2.97;;;1.30;;
20986;SDS011;10652;50.306;8.570;2022-07-29T02:02:45;5.97;;;2.10;;
20986;SDS011;10652;50.306;8.570;2022-07-29T02:06:50;4.40;;;1.90;;
20986;SDS011;10652;50.306;8.570;2022-07-29T02:10:56;2.67;;;1.52;;
20986;SDS011;10652;50.306;8.570;2022-07-29T02:15:00;4.05;;;1.80;;
20986;SDS011;10652;50.306;8.570;2022-07-29T02:19:05;3.03;;;1.58;;
20986;SDS011;10652;50.306;8.570;2022-07-29T02:23:10;3.20;;;1.48;;
20986;SDS011;10652;50.306;8.570;2022-07-29T02:27:14;3.40;;;1.70;;
20986;SDS011;10652;50.306;8.570;2022-07-29T02:31:17;2.80;;;1.40;;
20986;SDS011;10652;50.306;8.570;2022-07-29T02:35:23;4.60;;;1.53;;
20986;SDS011;10652;50.306;8.570;2022-07-29T02:39:26;4.15;;;1.67;;
20986;SDS011;10652;50.306;8.570;2022-07-29T02:43:31;3.42;;;1.98;;
20986;SDS011;10652;50.306;8.570;2022-07-29T02:47:42;2.50;;;1.80;;
20986;SDS011;10652;50.306;8.570;2022-07-29T02:51:51;1.77;;;1.52;;
20986;SDS011;10652;50.306;8.570;2022-07-29T02:55:56;4.28;;;1.55;;
20986;SDS011;10652;50.306;8.570;2022-07-29T03:00:03;3.95;;;1.73;;
20986;SDS011;10652;50.306;8.570;2022-07-29T03:04:08;2.00;;;1.48;;
20986;SDS011;10652;50.306;8.570;2022-07-29T03:08:13;4.10;;;2.00;;
20986;SDS011;10652;50.306;8.570;2022-07-29T03:12:17;3.33;;;1.83;;
20986;SDS011;10652;50.306;8.570;2022-07-29T03:16:20;2.85;;;1.98;;
20986;SDS011;10652;50.306;8.570;2022-07-29T03:20:24;3.45;;;1.80;;
20986;SDS011;10652;50.306;8.570;2022-07-29T03:24:27;3.90;;;2.28;;
20986;SDS011;10652;50.306;8.570;2022-07-29T03:28:36;3.45;;;1.90;;
20986;SDS011;10652;50.306;8.570;2022-07-29T03:32:40;2.65;;;1.83;;
20986;SDS011;10652;50.306;8.570;2022-07-29T03:36:45;4.10;;;2.00;;
20986;SDS011;10652;50.306;8.570;2022-07-29T03:40:54;3.25;;;2.05;;
20986;SDS011;10652;50.306;8.570;2022-07-29T03:45:03;3.28;;;2.30;;
20986;SDS011;10652;50.306;8.570;2022-07-29T03:49:08;5.43;;;2.33;;
20986;SDS011;10652;50.306;8.570;2022-07-29T03:53:13;7.30;;;2.92;;
20986;SDS011;10652;50.306;8.570;2022-07-29T03:57:15;7.80;;;3.10;;
20986;SDS011;10652;50.306;8.570;2022-07-29T04:01:18;5.32;;;2.50;;
20986;SDS011;10652;50.306;8.570;2022-07-29T04:05:21;6.15;;;2.90;;
20986;SDS011;10652;50.306;8.570;2022-07-29T04:09:23;6.95;;;2.85;;
20986;SDS011;10652;50.306;8.570;2022-07-29T04:13:25;7.15;;;2.63;;
20986;SDS011;10652;50.306;8.570;2022-07-29T04:17:28;5.50;;;2.80;;
20986;SDS011;10652;50.306;8.570;2022-07-29T04:21:30;5.78;;;2.60;;
20986;SDS011;10652;50.306;8.570;2022-07-29T04:25:32;6.32;;;2.45;;
20986;SDS011;10652;50.306;8.570;2022-07-29T04:29:34;5.45;;;2.50;;
20986;SDS011;10652;50.306;8.570;2022-07-29T04:33:36;6.05;;;2.63;;
20986;SDS011;10652;50.306;8.570;2022-07-29T04:37:38;4.32;;;2.72;;
20986;SDS011;10652;50.306;8.570;2022-07-29T04:41:40;5.72;;;3.15;;
20986;SDS011;10652;50.306;8.570;2022-07-29T04:45:43;7.50;;;2.85;;
20986;SDS011;10652;50.306;8.570;2022-07-29T04:49:45;7.05;;;2.63;;
20986;SDS011;10652;50.306;8.570;2022-07-29T04:53:47;5.63;;;2.53;;
20986;SDS011;10652;50.306;8.570;2022-07-29T04:57:49;5.38;;;2.90;;
20986;SDS011;10652;50.306;8.570;2022-07-29T05:01:51;5.70;;;2.60;;
20986;SDS011;10652;50.306;8.570;2022-07-29T05:05:54;6.53;;;2.70;;
20986;SDS011;10652;50.306;8.570;2022-07-29T05:09:56;4.30;;;3.30;;
20986;SDS011;10652;50.306;8.570;2022-07-29T05:13:58;4.93;;;2.70;;
20986;SDS011;10652;50.306;8.570;2022-07-29T05:18:00;6.15;;;2.90;;
20986;SDS011;10652;50.306;8.570;2022-07-29T05:22:03;4.85;;;2.42;;
20986;SDS011;10652;50.306;8.570;2022-07-29T05:26:05;4.30;;;2.70;;
20986;SDS011;10652;50.306;8.570;2022-07-29T05:30:07;5.70;;;2.55;;
20986;SDS011;10652;50.306;8.570;2022-07-29T05:34:10;7.03;;;2.55;;
20986;SDS011;10652;50.306;8.570;2022-07-29T05:38:12;5.32;;;2.47;;
20986;SDS011;10652;50.306;8.570;2022-07-29T05:42:14;4.50;;;2.33;;
20986;SDS011;10652;50.306;8.570;2022-07-29T05:46:16;3.88;;;2.30;;
20986;SDS011;10652;50.306;8.570;2022-07-29T05:50:18;4.63;;;1.98;;
20986;SDS011;10652;50.306;8.570;2022-07-29T05:54:21;3.13;;;2.05;;
20986;SDS011;10652;50.306;8.570;2022-07-29T05:58:23;3.20;;;2.13;;
20986;SDS011;10652;50.306;8.570;2022-07-29T06:02:25;3.72;;;2.33;;
20986;SDS011;10652;50.306;8.570;2022-07-29T06:06:27;3.67;;;2.40;;
20986;SDS011;10652;50.306;8.570;2022-07-29T06:10:29;2.67;;;2.17;;
20986;SDS011;10652;50.306;8.570;2022-07-29T06:14:31;2.25;;;1.90;;
20986;SDS011;10652;50.306;8.570;2022-07-29T06:18:34;4.00;;;2.10;;
20986;SDS011;10652;50.306;8.570;2022-07-29T06:22:36;3.38;;;1.90;;
20986;SDS011;10652;50.306;8.570;2022-07-29T06:26:39;5.60;;;2.03;;
20986;SDS011;10652;50.306;8.570;2022-07-29T06:30:41;3.88;;;1.70;;
20986;SDS011;10652;50.306;8.570;2022-07-29T06:34:43;3.72;;;1.70;;
20986;SDS011;10652;50.306;8.570;2022-07-29T06:38:49;2.53;;;1.55;;
20986;SDS011;10652;50.306;8.570;2022-07-29T06:42:52;3.47;;;1.65;;
20986;SDS011;10652;50.306;8.570;2022-07-29T06:46:55;4.63;;;2.15;;
20986;SDS011;10652;50.306;8.570;2022-07-29T06:50:57;4.43;;;1.80;;
20986;SDS011;10652;50.306;8.570;2022-07-29T06:55:00;4.35;;;2.00;;
20986;SDS011;10652;50.306;8.570;2022-07-29T06:59:03;5.05;;;2.30;;
20986;SDS011;10652;50.306;8.570;2022-07-29T07:03:05;3.05;;;1.77;;
20986;SDS011;10652;50.306;8.570;2022-07-29T07:07:07;3.40;;;1.95;;
20986;SDS011;10652;50.306;8.570;2022-07-29T07:11:09;4.57;;;1.83;;
20986;SDS011;10652;50.306;8.570;2022-07-29T07:15:11;2.75;;;1.73;;
20986;SDS011;10652;50.306;8.570;2022-07-29T07:19:13;3.35;;;1.83;;
20986;SDS011;10652;50.306;8.570;2022-07-29T07:23:16;4.95;;;1.65;;
20986;SDS011;10652;50.306;8.570;2022-07-29T07:27:18;5.18;;;2.10;;
20986;SDS011;10652;50.306;8.570;2022-07-29T07:31:20;4.30;;;1.75;;
20986;SDS011;10652;50.306;8.570;2022-07-29T07:35:22;4.47;;;1.75;;
20986;SDS011;10652;50.306;8.570;2022-07-29T07:39:24;6.22;;;1.65;;
20986;SDS011;10652;50.306;8.570;2022-07-29T07:43:27;3.35;;;1.88;;
20986;SDS011;10652;50.306;8.570;2022-07-29T07:47:30;6.32;;;1.80;;
20986;SDS011;10652;50.306;8.570;2022-07-29T07:51:34;4.05;;;1.90;;
20986;SDS011;10652;50.306;8.570;2022-07-29T07:55:40;6.20;;;1.83;;
20986;SDS011;10652;50.306;8.570;2022-07-29T08:00:04;4.67;;;1.60;;
20986;SDS011;10652;50.306;8.570;2022-07-29T08:04:12;4.90;;;2.00;;
20986;SDS011;10652;50.306;8.570;2022-07-29T08:08:15;3.20;;;1.67;;
20986;SDS011;10652;50.306;8.570;2022-07-29T08:12:17;6.60;;;2.30;;
20986;SDS011;10652;50.306;8.570;2022-07-29T08:16:19;5.47;;;2.55;;
20986;SDS011;10652;50.306;8.570;2022-07-29T08:20:22;6.05;;;2.35;;
20986;SDS011;10652;50.306;8.570;2022-07-29T08:24:24;3.30;;;1.65;;
20986;SDS011;10652;50.306;8.570;2022-07-29T08:28:45;4.63;;;2.00;;
20986;SDS011;10652;50.306;8.570;2022-07-29T08:32:50;5.20;;;1.80;;
20986;SDS011;10652;50.306;8.570;2022-07-29T08:36:56;3.67;;;2.00;;
20986;SDS011;10652;50.306;8.570;2022-07-29T08:41:00;2.88;;;1.50;;
20986;SDS011;10652;50.306;8.570;2022-07-29T08:45:03;2.35;;;1.70;;
20986;SDS011;10652;50.306;8.570;2022-07-29T08:49:06;3.25;;;2.10;;
20986;SDS011;10652;50.306;8.570;2022-07-29T08:53:12;3.75;;;1.65;;
20986;SDS011;10652;50.306;8.570;2022-07-29T09:01:22;3.22;;;1.50;;
20986;SDS011;10652;50.306;8.570;2022-07-29T09:05:37;4.20;;;1.60;;
20986;SDS011;10652;50.306;8.570;2022-07-29T09:09:48;5.43;;;1.88;;
20986;SDS011;10652;50.306;8.570;2022-07-29T09:13:51;4.18;;;1.80;;
20986;SDS011;10652;50.306;8.570;2022-07-29T09:17:53;3.80;;;1.85;;
20986;SDS011;10652;50.306;8.570;2022-07-29T09:21:57;5.15;;;2.13;;
20986;SDS011;10652;50.306;8.570;2022-07-29T09:26:05;5.20;;;1.63;;
20986;SDS011;10652;50.306;8.570;2022-07-29T09:30:08;2.88;;;1.58;;
20986;SDS011;10652;50.306;8.570;2022-07-29T09:34:13;3.85;;;2.10;;
20986;SDS011;10652;50.306;8.570;2022-07-29T09:38:18;6.10;;;2.10;;
20986;SDS011;10652;50.306;8.570;2022-07-29T09:42:29;3.90;;;1.92;;
20986;SDS011;10652;50.306;8.570;2022-07-29T09:46:34;3.90;;;1.90;;
20986;SDS011;10652;50.306;8.570;2022-07-29T09:50:39;5.05;;;1.98;;
20986;SDS011;10652;50.306;8.570;2022-07-29T09:54:41;3.35;;;1.52;;
20986;SDS011;10652;50.306;8.570;2022-07-29T09:58:43;4.57;;;1.92;;
20986;SDS011;10652;50.306;8.570;2022-07-29T10:02:46;4.72;;;2.15;;
20986;SDS011;10652;50.306;8.570;2022-07-29T10:06:56;3.30;;;1.80;;
20986;SDS011;10652;50.306;8.570;2022-07-29T10:11:16;6.90;;;1.88;;
20986;SDS011;10652;50.306;8.570;2022-07-29T10:15:20;4.72;;;2.03;;
20986;SDS011;10652;50.306;8.570;2022-07-29T10:19:23;6.50;;;1.80;;
20986;SDS011;10652;50.306;8.570;2022-07-29T10:23:27;4.43;;;1.70;;
20986;SDS011;10652;50.306;8.570;2022-07-29T10:27:48;4.28;;;1.90;;
20986;SDS011;10652;50.306;8.570;2022-07-29T10:45:45;3.53;;;1.95;;
20986;SDS011;10652;50.306;8.570;2022-07-29T10:49:57;3.45;;;1.90;;
20986;SDS011;10652;50.306;8.570;2022-07-29T10:54:02;2.08;;;1.75;;
20986;SDS011;10652;50.306;8.570;2022-07-29T10:58:12;2.70;;;2.05;;
20986;SDS011;10652;50.306;8.570;2022-07-29T11:11:29;2.70;;;1.90;;
20986;SDS011;10652;50.306;8.570;2022-07-29T11:15:52;4.03;;;1.80;;
20986;SDS011;10652;50.306;8.570;2022-07-29T11:24:39;2.85;;;1.83;;
20986;SDS011;10652;50.306;8.570;2022-07-29T11:28:59;5.18;;;1.80;;
20986;SDS011;10652;50.306;8.570;2022-07-29T11:33:26;4.03;;;2.08;;
20986;SDS011;10652;50.306;8.570;2022-07-29T11:46:49;3.92;;;1.77;;
20986;SDS011;10652;50.306;8.570;2022-07-29T11:50:54;4.30;;;2.03;;
20986;SDS011;10652;50.306;8.570;2022-07-29T11:55:00;5.22;;;2.03;;
20986;SDS011;10652;50.306;8.570;2022-07-29T11:59:11;4.05;;;1.88;;
20986;SDS011;10652;50.306;8.570;2022-07-29T12:03:23;3.72;;;1.52;;
20986;SDS011;10652;50.306;8.570;2022-07-29T12:07:37;4.93;;;2.00;;
20986;SDS011;10652;50.306;8.570;2022-07-29T12:11:42;2.63;;;1.65;;
20986;SDS011;10652;50.306;8.570;2022-07-29T12:15:51;7.13;;;1.92;;
20986;SDS011;10652;50.306;8.570;2022-07-29T12:20:02;4.10;;;2.03;;
20986;SDS011;10652;50.306;8.570;2022-07-29T12:24:06;3.08;;;2.10;;
20986;SDS011;10652;50.306;8.570;2022-07-29T12:28:11;5.25;;;1.90;;
20986;SDS011;10652;50.306;8.570;2022-07-29T12:32:31;3.33;;;1.73;;
20986;SDS011;10652;50.306;8.570;2022-07-29T12:36:37;4.15;;;2.10;;
20986;SDS011;10652;50.306;8.570;2022-07-29T12:40:39;4.45;;;2.33;;
20986;SDS011;10652;50.306;8.570;2022-07-29T12:44:45;2.10;;;1.90;;
20986;SDS011;10652;50.306;8.570;2022-07-29T12:53:08;3.05;;;1.88;;
20986;SDS011;10652;50.306;8.570;2022-07-29T12:57:11;3.53;;;1.90;;
20986;SDS011;10652;50.306;8.570;2022-07-29T13:01:20;2.55;;;1.80;;
20986;SDS011;10652;50.306;8.570;2022-07-29T13:05:23;3.00;;;1.92;;
20986;SDS011;10652;50.306;8.570;2022-07-29T13:09:35;2.75;;;1.88;;
20986;SDS011;10652;50.306;8.570;2022-07-29T13:13:50;2.95;;;1.75;;
20986;SDS011;10652;50.306;8.570;2022-07-29T13:18:26;3.00;;;2.15;;
20986;SDS011;10652;50.306;8.570;2022-07-29T13:22:32;5.03;;;1.80;;
20986;SDS011;10652;50.306;8.570;2022-07-29T13:26:36;3.47;;;2.15;;
20986;SDS011;10652;50.306;8.570;2022-07-29T13:34:45;3.97;;;1.70;;
20986;SDS011;10652;50.306;8.570;2022-07-29T13:38:47;4.78;;;1.90;;
20986;SDS011;10652;50.306;8.570;2022-07-29T13:42:49;3.63;;;1.92;;
20986;SDS011;10652;50.306;8.570;2022-07-29T13:46:51;3.45;;;2.00;;
20986;SDS011;10652;50.306;8.570;2022-07-29T13:50:54;3.55;;;1.70;;
20986;SDS011;10652;50.306;8.570;2022-07-29T13:54:56;2.13;;;1.80;;
20986;SDS011;10652;50.306;8.570;2022-07-29T13:58:58;4.40;;;2.10;;
20986;SDS011;10652;50.306;8.570;2022-07-29T14:03:00;3.15;;;1.90;;
20986;SDS011;10652;50.306;8.570;2022-07-29T14:07:02;3.63;;;2.17;;
20986;SDS011;10652;50.306;8.570;2022-07-29T14:11:05;2.47;;;2.00;;
20986;SDS011;10652;50.306;8.570;2022-07-29T14:15:07;3.50;;;2.13;;
20986;SDS011;10652;50.306;8.570;2022-07-29T14:19:10;3.45;;;2.30;;
20986;SDS011;10652;50.306;8.570;2022-07-29T14:23:12;2.85;;;2.35;;
20986;SDS011;10652;50.306;8.570;2022-07-29T14:27:17;4.47;;;2.58;;
20986;SDS011;10652;50.306;8.570;2022-07-29T14:31:19;3.88;;;2.90;;
20986;SDS011;10652;50.306;8.570;2022-07-29T14:35:21;4.50;;;2.78;;
20986;SDS011;10652;50.306;8.570;2022-07-29T14:39:23;3.25;;;2.67;;
20986;SDS011;10652;50.306;8.570;2022-07-29T14:43:33;4.63;;;3.03;;
20986;SDS011;10652;50.306;8.570;2022-07-29T14:47:36;3.40;;;2.72;;
20986;SDS011;10652;50.306;8.570;2022-07-29T14:51:39;4.15;;;2.80;;
20986;SDS011;10652;50.306;8.570;2022-07-29T14:55:41;3.72;;;3.05;;
20986;SDS011;10652;50.306;8.570;2022-07-29T14:59:43;3.83;;;2.83;;
20986;SDS011;10652;50.306;8.570;2022-07-29T15:03:45;4.20;;;2.95;;
20986;SDS011;10652;50.306;8.570;2022-07-29T15:07:47;4.43;;;2.90;;
20986;SDS011;10652;50.306;8.570;2022-07-29T15:11:49;3.25;;;2.80;;
20986;SDS011;10652;50.306;8.570;2022-07-29T15:15:51;4.57;;;2.83;;
20986;SDS011;10652;50.306;8.570;2022-07-29T15:20:00;3.70;;;2.60;;
20986;SDS011;10652;50.306;8.570;2022-07-29T15:24:02;5.38;;;3.10;;
20986;SDS011;10652;50.306;8.570;2022-07-29T15:28:04;4.68;;;2.80;;
20986;SDS011;10652;50.306;8.570;2022-07-29T15:32:08;3.20;;;2.60;;
20986;SDS011;10652;50.306;8.570;2022-07-29T15:36:11;2.92;;;2.63;;
20986;SDS011;10652;50.306;8.570;2022-07-29T15:40:34;4.65;;;2.70;;
20986;SDS011;10652;50.306;8.570;2022-07-29T15:44:37;5.18;;;3.05;;
20986;SDS011;10652;50.306;8.570;2022-07-29T15:48:39;4.22;;;2.80;;
20986;SDS011;10652;50.306;8.570;2022-07-29T15:52:42;4.68;;;2.58;;
20986;SDS011;10652;50.306;8.570;2022-07-29T15:56:44;4.18;;;2.75;;
20986;SDS011;10652;50.306;8.570;2022-07-29T16:00:46;5.03;;;2.83;;
20986;SDS011;10652;50.306;8.570;2022-07-29T16:04:48;4.35;;;2.70;;
20986;SDS011;10652;50.306;8.570;2022-07-29T16:08:50;3.28;;;2.63;;
20986;SDS011;10652;50.306;8.570;2022-07-29T16:12:52;3.80;;;2.67;;
20986;SDS011;10652;50.306;8.570;2022-07-29T16:16:54;3.40;;;2.90;;
20986;SDS011;10652;50.306;8.570;2022-07-29T16:20:57;4.10;;;3.00;;
20986;SDS011;10652;50.306;8.570;2022-07-29T16:25:00;3.05;;;2.17;;
20986;SDS011;10652;50.306;8.570;2022-07-29T16:29:02;2.72;;;2.25;;
20986;SDS011;10652;50.306;8.570;2022-07-29T16:33:05;3.58;;;2.13;;
20986;SDS011;10652;50.306;8.570;2022-07-29T16:37:09;3.28;;;2.05;;
20986;SDS011;10652;50.306;8.570;2022-07-29T16:41:11;1.63;;;1.52;;
20986;SDS011;10652;50.306;8.570;2022-07-29T16:45:17;1.92;;;1.40;;
20986;SDS011;10652;50.306;8.570;2022-07-29T16:49:22;3.47;;;1.70;;
20986;SDS011;10652;50.306;8.570;2022-07-29T16:53:24;1.95;;;1.60;;
20986;SDS011;10652;50.306;8.570;2022-07-29T16:57:30;3.83;;;1.60;;
20986;SDS011;10652;50.306;8.570;2022-07-29T17:01:33;2.20;;;1.73;;
20986;SDS011;10652;50.306;8.570;2022-07-29T17:05:35;2.90;;;1.67;;
20986;SDS011;10652;50.306;8.570;2022-07-29T17:09:55;2.35;;;1.60;;
20986;SDS011;10652;50.306;8.570;2022-07-29T17:14:04;2.13;;;2.00;;
20986;SDS011;10652;50.306;8.570;2022-07-29T17:18:09;2.50;;;2.10;;
20986;SDS011;10652;50.306;8.570;2022-07-29T17:22:13;4.15;;;2.05;;
20986;SDS011;10652;50.306;8.570;2022-07-29T17:26:20;2.10;;;1.88;;
20986;SDS011;10652;50.306;8.570;2022-07-29T17:30:22;2.38;;;1.92;;
20986;SDS011;10652;50.306;8.570;2022-07-29T17:34:24;3.50;;;2.10;;
20986;SDS011;10652;50.306;8.570;2022-07-29T17:38:26;2.47;;;2.13;;
20986;SDS011;10652;50.306;8.570;2022-07-29T17:42:28;5.60;;;2.38;;
20986;SDS011;10652;50.306;8.570;2022-07-29T17:46:30;4.28;;;2.80;;
20986;SDS011;10652;50.306;8.570;2022-07-29T17:50:33;4.03;;;2.28;;
20986;SDS011;10652;50.306;8.570;2022-07-29T17:54:35;7.30;;;3.70;;
20986;SDS011;10652;50.306;8.570;2022-07-29T17:58:37;3.10;;;2.72;;
20986;SDS011;10652;50.306;8.570;2022-07-29T18:02:40;4.30;;;3.10;;
20986;SDS011;10652;50.306;8.570;2022-07-29T18:06:42;4.07;;;3.03;;
20986;SDS011;10652;50.306;8.570;2022-07-29T18:10:44;4.13;;;3.40;;
20986;SDS011;10652;50.306;8.570;2022-07-29T18:14:47;3.58;;;3.22;;
20986;SDS011;10652;50.306;8.570;2022-07-29T18:18:49;5.97;;;3.55;;
20986;SDS011;10652;50.306;8.570;2022-07-29T18:22:51;5.05;;;3.13;;
20986;SDS011;10652;50.306;8.570;2022-07-29T18:26:53;5.00;;;2.97;;
20986;SDS011;10652;50.306;8.570;2022-07-29T18:30:57;5.22;;;3.58;;
20986;SDS011;10652;50.306;8.570;2022-07-29T18:35:00;4.70;;;3.22;;
20986;SDS011;10652;50.306;8.570;2022-07-29T18:39:03;4.13;;;3.72;;
20986;SDS011;10652;50.306;8.570;2022-07-29T18:43:05;5.80;;;3.88;;
20986;SDS011;10652;50.306;8.570;2022-07-29T18:47:07;4.82;;;3.67;;
20986;SDS011;10652;50.306;8.570;2022-07-29T18:51:12;6.05;;;3.40;;
20986;SDS011;10652;50.306;8.570;2022-07-29T18:55:14;5.68;;;3.47;;
20986;SDS011;10652;50.306;8.570;2022-07-29T18:59:16;4.57;;;3.38;;
20986;SDS011;10652;50.306;8.570;2022-07-29T19:03:20;7.20;;;3.65;;
20986;SDS011;10652;50.306;8.570;2022-07-29T19:07:22;4.03;;;3.60;;
20986;SDS011;10652;50.306;8.570;2022-07-29T19:11:27;4.28;;;3.83;;
20986;SDS011;10652;50.306;8.570;2022-07-29T19:15:29;7.43;;;3.80;;
20986;SDS011;10652;50.306;8.570;2022-07-29T19:19:31;4.05;;;3.65;;
20986;SDS011;10652;50.306;8.570;2022-07-29T19:23:33;5.05;;;4.00;;
20986;SDS011;10652;50.306;8.570;2022-07-29T19:27:55;4.32;;;3.63;;
20986;SDS011;10652;50.306;8.570;2022-07-29T19:31:58;4.75;;;3.92;;
20986;SDS011;10652;50.306;8.570;2022-07-29T19:36:01;4.85;;;3.33;;
20986;SDS011;10652;50.306;8.570;2022-07-29T19:40:04;5.03;;;3.50;;
20986;SDS011;10652;50.306;8.570;2022-07-29T19:44:07;7.80;;;3.47;;
20986;SDS011;10652;50.306;8.570;2022-07-29T19:48:09;4.07;;;3.33;;
20986;SDS011;10652;50.306;8.570;2022-07-29T19:52:12;5.55;;;3.70;;
20986;SDS011;10652;50.306;8.570;2022-07-29T19:56:14;5.70;;;3.53;;
20986;SDS011;10652;50.306;8.570;2022-07-29T20:00:18;5.38;;;4.30;;
20986;SDS011;10652;50.306;8.570;2022-07-29T20:04:21;6.10;;;3.97;;
20986;SDS011;10652;50.306;8.570;2022-07-29T20:08:24;5.15;;;4.07;;
20986;SDS011;10652;50.306;8.570;2022-07-29T20:12:26;6.40;;;4.80;;
20986;SDS011;10652;50.306;8.570;2022-07-29T20:16:28;7.43;;;4.30;;
20986;SDS011;10652;50.306;8.570;2022-07-29T20:20:30;6.13;;;4.10;;
20986;SDS011;10652;50.306;8.570;2022-07-29T20:24:32;5.63;;;4.03;;
20986;SDS011;10652;50.306;8.570;2022-07-29T20:28:35;3.72;;;3.38;;
20986;SDS011;10652;50.306;8.570;2022-07-29T20:32:38;3.72;;;3.40;;
20986;SDS011;10652;50.306;8.570;2022-07-29T20:36:41;5.28;;;3.30;;
20986;SDS011;10652;50.306;8.570;2022-07-29T20:40:43;4.05;;;3.70;;
20986;SDS011;10652;50.306;8.570;2022-07-29T20:44:45;4.82;;;3.47;;
20986;SDS011;10652;50.306;8.570;2022-07-29T20:48:47;6.07;;;3.95;;
20986;SDS011;10652;50.306;8.570;2022-07-29T20:52:50;7.25;;;3.90;;
20986;SDS011;10652;50.306;8.570;2022-07-29T20:56:52;5.60;;;4.28;;
20986;SDS011;10652;50.306;8.570;2022-07-29T21:00:54;5.63;;;4.57;;
20986;SDS011;10652;50.306;8.570;2022-07-29T21:04:57;8.75;;;4.60;;
20986;SDS011;10652;50.306;8.570;2022-07-29T21:08:59;7.30;;;4.18;;
20986;SDS011;10652;50.306;8.570;2022-07-29T21:13:01;6.65;;;4.05;;
20986;SDS011;10652;50.306;8.570;2022-07-29T21:17:03;6.90;;;4.15;;
20986;SDS011;10652;50.306;8.570;2022-07-29T21:21:07;7.50;;;4.32;;
20986;SDS011;10652;50.306;8.570;2022-07-29T21:25:10;5.05;;;4.30;;
20986;SDS011;10652;50.306;8.570;2022-07-29T21:29:12;8.57;;;4.35;;
20986;SDS011;10652;50.306;8.570;2022-07-29T21:33:14;5.05;;;4.30;;
20986;SDS011;10652;50.306;8.570;2022-07-29T21:37:16;5.15;;;3.97;;
20986;SDS011;10652;50.306;8.570;2022-07-29T21:41:18;6.82;;;4.55;;
20986;SDS011;10652;50.306;8.570;2022-07-29T21:45:22;5.05;;;3.97;;
20986;SDS011;10652;50.306;8.570;2022-07-29T21:49:24;7.75;;;4.60;;
20986;SDS011;10652;50.306;8.570;2022-07-29T21:53:26;8.43;;;4.80;;
20986;SDS011;10652;50.306;8.570;2022-07-29T21:57:29;5.88;;;4.63;;
20986;SDS011;10652;50.306;8.570;2022-07-29T22:01:31;6.95;;;5.40;;
20986;SDS011;10652;50.306;8.570;2022-07-29T22:05:40;6.63;;;4.70;;
20986;SDS011;10652;50.306;8.570;2022-07-29T22:09:42;8.73;;;4.15;;
20986;SDS011;10652;50.306;8.570;2022-07-29T22:13:44;8.13;;;4.20;;
20986;SDS011;10652;50.306;8.570;2022-07-29T22:17:46;9.57;;;4.60;;
20986;SDS011;10652;50.306;8.570;2022-07-29T22:21:48;6.75;;;4.25;;
20986;SDS011;10652;50.306;8.570;2022-07-29T22:25:52;6.75;;;4.18;;
20986;SDS011;10652;50.306;8.570;2022-07-29T22:29:54;6.88;;;3.97;;
20986;SDS011;10652;50.306;8.570;2022-07-29T22:33:56;6.65;;;4.70;;
20986;SDS011;10652;50.306;8.570;2022-07-29T22:37:58;5.60;;;4.40;;
20986;SDS011;10652;50.306;8.570;2022-07-29T22:42:00;4.97;;;4.28;;
20986;SDS011;10652;50.306;8.570;2022-07-29T22:46:02;5.55;;;4.00;;
20986;SDS011;10652;50.306;8.570;2022-07-29T22:50:05;6.18;;;4.07;;
20986;SDS011;10652;50.306;8.570;2022-07-29T22:54:07;6.13;;;4.05;;
20986;SDS011;10652;50.306;8.570;2022-07-29T22:58:09;3.80;;;3.45;;
20986;SDS011;10652;50.306;8.570;2022-07-29T23:02:11;5.43;;;3.83;;
20986;SDS011;10652;50.306;8.570;2022-07-29T23:06:13;5.55;;;3.83;;
20986;SDS011;10652;50.306;8.570;2022-07-29T23:10:16;6.45;;;4.05;;
20986;SDS011;10652;50.306;8.570;2022-07-29T23:14:18;6.78;;;4.03;;
20986;SDS011;10652;50.306;8.570;2022-07-29T23:18:20;6.30;;;4.00;;
20986;SDS011;10652;50.306;8.570;2022-07-29T23:22:22;8.07;;;4.22;;
20986;SDS011;10652;50.306;8.570;2022-07-29T23:26:24;7.47;;;4.10;;
20986;SDS011;10652;50.306;8.570;2022-07-29T23:30:26;4.60;;;4.00;;
20986;SDS011;10652;50.306;8.570;2022-07-29T23:34:29;3.90;;;3.53;;
20986;SDS011;10652;50.306;8.570;2022-07-29T23:38:31;4.85;;;3.20;;
20986;SDS011;10652;50.306;8.570;2022-07-29T23:42:33;3.40;;;3.10;;
20986;SDS011;10652;50.306;8.570;2022-07-29T23:46:35;5.35;;;3.60;;
20986;SDS011;10652;50.306;8.570;2022-07-29T23:50:37;5.40;;;3.13;;
20986;SDS011;10652;50.306;8.570;2022-07-29T23:54:39;3.47;;;3.17;;
20986;SDS011;10652;50.306;8.570;2022-07-29T23:58:42;3.53;;;3.22;;
